Time;durP1;ratioP1;P1;durP2;ratioP2;P2;SDS_P1;SDS_P2;PMS_P1;PMS_P2;Temp;Humidity;BMP_temperature;BMP_pressure;BME280_temperature;BME280_humidity;BME280_pressure;Samples;Min_cycle;Max_cycle;Signal;HPM_P1;HPM_P2
2022/05/08 00:01:51;;;;;;;13.87;12.67;;;14.20;99.90;;;;;;5035480;28;20589;-70
2022/05/08 00:04:17;;;;;;;13.83;12.50;;;14.10;99.90;;;;;;5053452;28;20250;-70
2022/05/08 00:06:43;;;;;;;14.80;13.50;;;14.10;99.90;;;;;;5053331;28;20184;-70
2022/05/08 00:09:09;;;;;;;12.60;11.50;;;14.20;99.90;;;;;;5053020;28;20572;-70
2022/05/08 00:11:35;;;;;;;14.00;12.80;;;14.30;99.90;;;;;;5052955;28;20259;-70
2022/05/08 00:14:01;;;;;;;14.00;12.70;;;14.30;99.90;;;;;;5052990;28;20645;-70
2022/05/08 00:16:26;;;;;;;13.17;12.00;;;14.30;99.90;;;;;;5052611;28;20543;-70
2022/05/08 00:18:52;;;;;;;12.90;11.80;;;14.30;99.90;;;;;;5052853;28;20190;-70
2022/05/08 00:21:17;;;;;;;12.27;11.17;;;14.20;99.90;;;;;;5052629;28;20179;-70
2022/05/08 00:23:43;;;;;;;15.17;13.80;;;14.10;99.90;;;;;;5052770;28;20174;-70
2022/05/08 00:26:08;;;;;;;14.50;13.23;;;14.10;99.90;;;;;;5052702;28;20195;-70
2022/05/08 00:28:35;;;;;;;12.00;11.00;;;14.00;99.90;;;;;;5053046;28;20237;-70
2022/05/08 00:31:01;;;;;;;12.97;11.87;;;14.00;99.90;;;;;;5069101;28;20184;-70
2022/05/08 00:33:26;;;;;;;13.50;12.30;;;14.00;99.90;;;;;;5055429;28;20786;-69
2022/05/08 00:35:53;;;;;;;14.37;13.10;;;13.90;99.90;;;;;;5072552;28;20277;-70
2022/05/08 00:38:19;;;;;;;12.70;11.60;;;13.70;99.90;;;;;;5072578;28;20561;-70
2022/05/08 00:40:44;;;;;;;12.70;11.40;;;13.70;99.90;;;;;;5072384;28;20442;-70
2022/05/08 00:43:33;;;;;;;13.30;11.90;;;13.60;99.90;;;;;;5072835;28;20658;-70
2022/05/08 00:46:01;;;;;;;13.77;12.53;;;13.60;99.90;;;;;;5072391;28;20156;-70
2022/05/08 00:48:27;;;;;;;14.70;13.33;;;13.60;99.90;;;;;;5072245;28;20490;-70
2022/05/08 00:50:54;;;;;;;14.87;13.57;;;13.70;99.90;;;;;;5054377;28;20419;-70
2022/05/08 00:53:20;;;;;;;13.60;12.50;;;13.80;99.90;;;;;;5072415;28;20174;-70
2022/05/08 00:55:47;;;;;;;14.03;12.63;;;13.70;99.90;;;;;;5072279;28;20516;-70
2022/05/08 00:58:14;;;;;;;15.10;13.70;;;13.70;99.90;;;;;;5072608;28;20507;-71
2022/05/08 01:00:40;;;;;;;14.10;12.70;;;13.70;99.90;;;;;;5072064;28;20422;-70
2022/05/08 01:03:05;;;;;;;13.30;12.00;;;13.70;99.90;;;;;;5072274;28;20406;-70
2022/05/08 01:05:31;;;;;;;14.23;12.93;;;13.60;99.90;;;;;;5072852;28;20182;-70
2022/05/08 01:07:57;;;;;;;12.00;10.90;;;13.60;99.90;;;;;;5072174;28;20248;-70
2022/05/08 01:10:23;;;;;;;14.60;13.50;;;13.60;99.90;;;;;;5072416;28;20178;-70
2022/05/08 01:12:48;;;;;;;16.10;14.70;;;13.60;99.90;;;;;;5072225;28;20659;-70
2022/05/08 01:15:16;;;;;;;14.07;12.87;;;13.60;99.90;;;;;;5071981;28;20208;-70
2022/05/08 01:17:44;;;;;;;15.23;13.93;;;13.60;99.90;;;;;;5055102;28;20221;-70
2022/05/08 01:20:10;;;;;;;14.03;12.73;;;13.70;99.90;;;;;;5076154;28;20424;-71
2022/05/08 01:22:36;;;;;;;15.93;14.27;;;13.60;99.90;;;;;;5076482;28;20432;-70
2022/05/08 01:25:02;;;;;;;15.73;14.10;;;13.50;99.90;;;;;;5075930;28;20417;-70
2022/05/08 01:27:28;;;;;;;16.27;14.77;;;13.40;99.90;;;;;;5075740;28;20764;-70
2022/05/08 01:29:54;;;;;;;14.27;13.00;;;13.30;99.90;;;;;;5075540;28;20483;-70
2022/05/08 01:32:19;;;;;;;18.17;16.47;;;13.30;99.90;;;;;;5075584;28;20253;-70
2022/05/08 01:34:45;;;;;;;16.30;14.73;;;13.20;99.90;;;;;;5075826;28;20546;-70
2022/05/08 01:37:11;;;;;;;16.47;14.97;;;13.20;99.90;;;;;;5075794;28;20175;-70
2022/05/08 01:39:36;;;;;;;18.63;17.03;;;13.30;99.90;;;;;;5075447;28;20779;-70
2022/05/08 01:42:06;;;;;;;17.07;15.23;;;13.30;99.90;;;;;;5075485;28;20216;-70
2022/05/08 01:44:32;;;;;;;15.70;14.30;;;13.30;99.90;;;;;;5075490;28;20254;-71
2022/05/08 01:49:42;;;;;;;17.83;16.33;;;13.20;99.90;;;;;;5075363;28;20838;-70
2022/05/08 01:52:08;;;;;;;17.87;16.27;;;13.20;99.90;;;;;;5075325;28;20494;-70
2022/05/08 01:54:33;;;;;;;16.80;15.30;;;13.20;99.90;;;;;;5073783;28;20606;-71
2022/05/08 01:56:59;;;;;;;17.40;15.90;;;13.10;99.90;;;;;;5037631;28;20425;-71
2022/05/08 01:59:25;;;;;;;16.93;15.43;;;13.10;99.90;;;;;;5048669;28;20195;-71
2022/05/08 02:01:51;;;;;;;18.17;16.57;;;13.20;99.90;;;;;;5055326;28;20397;-70
2022/05/08 02:04:18;;;;;;;17.30;15.80;;;13.20;99.90;;;;;;5055426;28;20182;-70
2022/05/08 02:06:45;;;;;;;18.00;16.40;;;13.10;99.90;;;;;;5055024;28;20412;-70
2022/05/08 02:09:11;;;;;;;18.53;17.03;;;13.10;99.90;;;;;;5054852;28;20436;-70
2022/05/08 02:11:37;;;;;;;22.13;18.60;;;13.10;99.90;;;;;;5054976;28;20455;-70
2022/05/08 02:14:03;;;;;;;17.37;15.87;;;13.10;99.90;;;;;;5055044;28;20170;-70
2022/05/08 02:16:31;;;;;;;18.30;13.93;;;13.10;99.90;;;;;;5054601;28;20439;-70
2022/05/08 02:18:57;;;;;;;18.20;16.53;;;13.10;99.90;;;;;;5054689;28;20943;-70
2022/05/08 02:21:23;;;;;;;17.40;16.00;;;13.00;99.90;;;;;;5054744;28;20511;-70
2022/05/08 02:23:49;;;;;;;15.70;14.27;;;13.00;99.90;;;;;;5054665;28;20174;-70
2022/05/08 02:26:14;;;;;;;17.50;15.50;;;13.00;99.90;;;;;;5054685;28;20413;-70
2022/05/08 02:28:40;;;;;;;17.10;15.50;;;13.10;99.90;;;;;;5054557;28;20197;-70
2022/05/08 02:31:06;;;;;;;16.73;15.33;;;13.00;99.90;;;;;;5071418;28;20186;-70
2022/05/08 02:33:33;;;;;;;16.20;14.80;;;13.20;99.90;;;;;;5075009;28;20265;-71
2022/05/08 02:35:59;;;;;;;16.43;15.03;;;13.20;99.90;;;;;;5074943;28;20201;-70
2022/05/08 02:38:25;;;;;;;16.30;14.90;;;13.30;99.90;;;;;;5074637;28;20425;-70
2022/05/08 02:40:51;;;;;;;13.97;12.77;;;13.20;99.90;;;;;;5074595;28;20635;-70
2022/05/08 02:43:20;;;;;;;15.63;14.23;;;13.20;99.90;;;;;;5074628;28;20418;-69
2022/05/08 02:45:46;;;;;;;14.43;13.13;;;13.10;99.90;;;;;;5074210;28;20408;-70
2022/05/08 02:50:40;;;;;;;18.27;16.60;;;13.20;99.90;;;;;;4950316;28;20466;-71
2022/05/08 02:53:05;;;;;;;17.10;15.60;;;13.10;99.90;;;;;;4954060;29;20425;-71
2022/05/08 02:58:33;;;;;;;15.23;14.00;;;12.90;99.90;;;;;;4953146;28;20185;-71
2022/05/08 03:01:00;;;;;;;17.93;16.23;;;12.70;99.90;;;;;;4953755;29;20437;-71
2022/05/08 03:03:26;;;;;;;15.17;13.97;;;12.80;99.90;;;;;;4952829;28;20418;-71
2022/05/08 03:05:52;;;;;;;16.53;15.10;;;12.70;99.90;;;;;;4952203;29;20420;-70
2022/05/08 03:08:19;;;;;;;16.87;15.27;;;12.70;99.90;;;;;;4952340;28;20179;-70
2022/05/08 03:13:35;;;;;;;15.77;14.47;;;12.70;99.90;;;;;;4954332;29;20401;-70
2022/05/08 03:16:02;;;;;;;16.07;14.77;;;12.70;99.90;;;;;;4953001;29;20445;-70
2022/05/08 03:18:27;;;;;;;16.20;14.50;;;12.70;99.90;;;;;;4955072;28;20410;-69
2022/05/08 03:20:53;;;;;;;14.67;13.30;;;12.80;99.90;;;;;;4954473;29;20418;-70
2022/05/08 03:23:18;;;;;;;16.37;14.93;;;12.80;99.90;;;;;;4954327;29;20539;-70
2022/05/08 03:25:44;;;;;;;17.20;15.63;;;12.80;99.90;;;;;;4954428;29;20175;-70
2022/05/08 03:28:12;;;;;;;17.17;15.57;;;12.70;99.90;;;;;;4954841;29;20170;-70
2022/05/08 03:30:39;;;;;;;17.37;15.87;;;12.70;99.90;;;;;;4952878;29;20420;-70
2022/05/08 03:33:06;;;;;;;16.57;15.20;;;12.60;99.90;;;;;;4953029;28;20457;-70
2022/05/08 03:35:32;;;;;;;16.93;15.37;;;12.40;99.90;;;;;;4954096;29;21013;-70
2022/05/08 03:37:58;;;;;;;19.30;17.50;;;12.50;99.90;;;;;;4953554;28;20426;-70
2022/05/08 03:40:26;;;;;;;18.10;16.40;;;12.50;99.90;;;;;;4953830;28;20963;-70
2022/05/08 03:42:55;;;;;;;16.83;15.33;;;12.50;99.90;;;;;;4954383;29;20179;-70
2022/05/08 03:45:20;;;;;;;17.17;15.70;;;12.50;99.90;;;;;;4954285;29;20407;-70
2022/05/08 03:47:50;;;;;;;18.23;16.73;;;12.50;99.90;;;;;;4953002;28;20607;-70
2022/05/08 03:50:20;;;;;;;19.70;17.70;;;12.50;99.90;;;;;;4953610;28;20206;-70
2022/05/08 03:52:45;;;;;;;16.87;15.47;;;12.50;99.90;;;;;;4953573;28;20426;-70
2022/05/08 03:55:11;;;;;;;18.63;16.97;;;12.50;99.90;;;;;;4949805;28;20463;-70
2022/05/08 03:57:37;;;;;;;19.97;18.30;;;12.40;99.90;;;;;;4943620;28;20585;-70
2022/05/08 04:00:04;;;;;;;17.97;16.40;;;12.50;99.90;;;;;;4943132;28;20210;-72
2022/05/08 04:02:30;;;;;;;19.77;17.87;;;12.50;99.90;;;;;;4945034;28;20415;-71
2022/05/08 04:04:55;;;;;;;16.70;15.00;;;12.50;99.90;;;;;;4944352;29;20561;-71
2022/05/08 04:07:21;;;;;;;17.50;15.97;;;12.50;99.90;;;;;;4944316;28;20195;-70
2022/05/08 04:09:46;;;;;;;17.57;15.63;;;12.50;99.90;;;;;;4944570;28;20212;-69
2022/05/08 04:12:12;;;;;;;18.70;16.90;;;12.40;99.90;;;;;;4944055;28;20190;-70
2022/05/08 04:14:38;;;;;;;18.43;16.60;;;12.40;99.90;;;;;;4944823;29;20591;-68
2022/05/08 04:17:04;;;;;;;15.30;13.70;;;12.40;99.90;;;;;;4944169;28;20179;-71
2022/05/08 04:19:30;;;;;;;18.03;16.47;;;12.40;99.90;;;;;;4943182;29;20205;-70
2022/05/08 04:24:16;;;;;;;17.67;15.97;;;12.40;99.90;;;;;;4944416;28;20417;-69
2022/05/08 04:24:41;;;;;;;17.87;16.17;;;12.40;99.90;;;;;;4943990;28;20185;-71
2022/05/08 04:27:07;;;;;;;19.20;17.40;;;12.50;99.90;;;;;;4944615;28;20405;-70
2022/05/08 04:29:33;;;;;;;18.30;16.70;;;12.50;99.90;;;;;;4944079;29;20447;-71
2022/05/08 04:31:58;;;;;;;18.53;16.80;;;12.60;99.90;;;;;;4944579;28;20205;-69
2022/05/08 04:34:24;;;;;;;19.30;17.50;;;12.50;99.90;;;;;;4945199;29;20771;-69
2022/05/08 04:36:50;;;;;;;20.70;18.80;;;12.50;99.90;;;;;;4944865;29;20178;-70
2022/05/08 04:39:17;;;;;;;18.00;16.40;;;12.60;99.90;;;;;;4944619;28;20195;-70
2022/05/08 04:41:43;;;;;;;20.10;18.30;;;12.50;99.90;;;;;;4944556;28;20420;-70
2022/05/08 04:44:09;;;;;;;19.90;18.10;;;12.40;99.90;;;;;;4945315;28;20414;-70
2022/05/08 04:46:34;;;;;;;18.73;17.07;;;12.30;99.90;;;;;;4944847;29;20185;-69
2022/05/08 04:49:00;;;;;;;18.60;16.80;;;12.30;99.90;;;;;;4944408;29;20261;-70
2022/05/08 04:51:25;;;;;;;17.47;15.97;;;12.40;99.90;;;;;;4946111;28;20186;-70
2022/05/08 04:53:51;;;;;;;18.20;16.43;;;12.60;99.90;;;;;;4941434;29;20189;-71
2022/05/08 04:56:17;;;;;;;18.70;17.00;;;12.60;99.90;;;;;;4955421;29;20213;-70
2022/05/08 04:58:42;;;;;;;21.13;19.10;;;12.60;99.90;;;;;;4956517;29;20194;-70
2022/05/08 05:01:08;;;;;;;21.90;19.90;;;12.70;99.90;;;;;;4957214;29;20164;-70
2022/05/08 05:03:33;;;;;;;21.60;19.50;;;12.70;99.90;;;;;;4956524;28;20204;-70
2022/05/08 05:05:59;;;;;;;20.27;18.40;;;12.80;99.90;;;;;;4955989;29;20178;-70
2022/05/08 05:08:24;;;;;;;17.43;15.73;;;12.70;99.90;;;;;;4955897;29;20183;-70
2022/05/08 05:10:50;;;;;;;18.77;16.77;;;12.80;99.90;;;;;;4956962;29;20169;-70
2022/05/08 05:13:16;;;;;;;18.70;17.03;;;12.80;99.90;;;;;;4955108;29;20185;-70
2022/05/08 05:15:41;;;;;;;22.63;20.73;;;12.80;99.90;;;;;;4956611;29;20680;-70
2022/05/08 05:18:07;;;;;;;21.47;19.50;;;12.90;99.90;;;;;;4953782;29;20173;-70
2022/05/08 05:20:33;;;;;;;21.37;19.27;;;12.90;99.90;;;;;;4949215;28;20195;-70
2022/05/08 05:23:03;;;;;;;18.70;17.00;;;12.90;99.90;;;;;;4937349;29;20647;-70
2022/05/08 05:25:29;;;;;;;19.73;17.83;;;13.00;99.90;;;;;;4935218;28;20261;-70
2022/05/08 05:27:55;;;;;;;18.53;16.93;;;13.00;99.90;;;;;;4936638;29;20417;-70
2022/05/08 05:30:21;;;;;;;19.43;17.73;;;13.10;99.90;;;;;;4936769;29;20438;-69
2022/05/08 05:32:47;;;;;;;19.80;18.10;;;13.10;99.90;;;;;;4936855;29;20482;-70
2022/05/08 05:35:13;;;;;;;21.87;19.77;;;13.20;99.90;;;;;;4936863;29;20861;-70
2022/05/08 05:37:39;;;;;;;22.90;20.90;;;13.20;99.90;;;;;;4936868;29;20530;-70
2022/05/08 05:40:06;;;;;;;19.80;17.93;;;13.30;99.90;;;;;;4936678;29;20563;-70
2022/05/08 05:42:32;;;;;;;19.27;17.57;;;13.30;99.90;;;;;;4943488;29;20431;-69
2022/05/08 05:44:58;;;;;;;20.53;18.73;;;13.40;99.90;;;;;;4956036;29;20798;-70
2022/05/08 05:50:09;;;;;;;18.77;17.17;;;13.50;99.90;;;;;;4956026;28;20584;-70
2022/05/08 05:52:35;;;;;;;18.37;16.77;;;13.50;99.90;;;;;;4955892;28;20410;-70
2022/05/08 05:55:04;;;;;;;19.47;17.77;;;13.50;99.90;;;;;;4956073;28;20871;-70
2022/05/08 05:57:30;;;;;;;22.40;20.50;;;13.60;99.90;;;;;;4951632;29;20466;-70
2022/05/08 05:59:56;;;;;;;22.30;20.13;;;13.60;99.90;;;;;;4955750;29;20926;-70
2022/05/08 06:02:21;;;;;;;21.53;19.63;;;13.70;99.90;;;;;;4955743;28;20417;-70
2022/05/08 06:04:47;;;;;;;22.23;20.37;;;13.70;99.90;;;;;;4956148;28;20177;-69
2022/05/08 06:07:12;;;;;;;23.30;21.30;;;13.80;99.90;;;;;;4958389;28;20184;-69
2022/05/08 06:09:38;;;;;;;24.50;22.40;;;13.80;99.90;;;;;;4957349;28;20189;-69
2022/05/08 06:12:04;;;;;;;23.77;21.67;;;14.00;99.90;;;;;;4957138;28;20730;-70
2022/05/08 06:14:30;;;;;;;22.53;20.43;;;14.00;99.90;;;;;;4957721;28;20624;-70
2022/05/08 06:16:55;;;;;;;22.20;20.30;;;14.10;99.90;;;;;;4956128;29;20168;-70
2022/05/08 06:19:21;;;;;;;24.17;21.97;;;14.10;99.90;;;;;;4962412;28;20205;-69
2022/05/08 06:21:47;;;;;;;25.97;23.87;;;14.10;99.90;;;;;;4953143;29;20184;-70
2022/05/08 06:24:13;;;;;;;24.93;22.57;;;14.20;99.90;;;;;;4955197;28;20542;-71
2022/05/08 06:26:38;;;;;;;25.03;22.67;;;14.30;99.90;;;;;;4955060;28;20461;-70
2022/05/08 06:29:04;;;;;;;27.50;24.90;;;14.30;99.90;;;;;;4955373;28;20194;-70
2022/05/08 06:31:30;;;;;;;25.73;23.43;;;14.30;99.90;;;;;;4954758;28;20634;-69
2022/05/08 06:33:56;;;;;;;22.47;20.53;;;14.10;99.90;;;;;;4955307;28;20173;-71
2022/05/08 06:36:22;;;;;;;25.03;22.73;;;14.10;99.90;;;;;;4955030;28;20518;-69
2022/05/08 06:38:48;;;;;;;24.17;21.93;;;14.20;99.90;;;;;;4955034;28;20420;-70
2022/05/08 06:41:13;;;;;;;26.30;24.00;;;14.20;99.90;;;;;;4955213;28;20169;-70
2022/05/08 06:43:40;;;;;;;22.63;20.60;;;14.20;99.90;;;;;;4955284;28;20185;-70
2022/05/08 06:46:07;;;;;;;23.67;21.47;;;14.40;99.90;;;;;;4954416;28;20519;-70
2022/05/08 06:48:33;;;;;;;27.60;25.00;;;14.60;99.90;;;;;;4954500;28;20435;-70
2022/05/08 06:50:58;;;;;;;25.70;23.20;;;14.50;99.90;;;;;;4953015;29;20412;-70
2022/05/08 06:53:26;;;;;;;26.93;24.43;;;14.50;99.90;;;;;;4954816;29;20405;-70
2022/05/08 06:55:51;;;;;;;23.73;21.40;;;14.40;99.90;;;;;;4954274;28;20570;-70
2022/05/08 06:58:18;;;;;;;22.57;20.50;;;14.60;99.90;;;;;;4954478;28;20413;-70
2022/05/08 07:03:28;;;;;;;23.73;21.73;;;14.90;99.90;;;;;;4954253;29;20475;-70
2022/05/08 07:05:54;;;;;;;22.87;20.77;;;14.80;99.90;;;;;;4954380;29;20451;-70
2022/05/08 07:08:19;;;;;;;22.90;20.77;;;14.80;99.90;;;;;;4954296;28;20165;-70
2022/05/08 07:10:45;;;;;;;23.40;21.33;;;14.80;99.90;;;;;;4953893;29;20413;-70
2022/05/08 07:13:10;;;;;;;24.60;22.30;;;14.90;99.90;;;;;;4954370;29;20268;-68
2022/05/08 07:15:36;;;;;;;23.70;21.30;;;15.10;99.90;;;;;;4953632;29;20190;-69
2022/05/08 07:18:02;;;;;;;21.00;19.20;;;15.30;99.90;;;;;;4953837;29;20196;-69
2022/05/08 07:20:28;;;;;;;21.43;19.53;;;15.50;99.90;;;;;;4953725;28;20739;-69
2022/05/08 07:22:53;;;;;;;20.73;18.83;;;15.30;99.90;;;;;;4953623;29;20690;-68
2022/05/08 07:25:19;;;;;;;23.90;21.80;;;15.20;99.90;;;;;;4952110;29;20211;-69
2022/05/08 07:27:45;;;;;;;23.30;21.10;;;15.50;99.90;;;;;;4952240;29;20186;-69
2022/05/08 07:30:11;;;;;;;25.17;22.97;;;15.70;99.90;;;;;;4953420;28;20437;-69
2022/05/08 07:32:37;;;;;;;24.20;21.93;;;15.70;99.90;;;;;;4953143;29;20209;-69
2022/05/08 07:37:47;;;;;;;22.40;20.50;;;16.00;99.90;;;;;;4953662;29;20161;-69
2022/05/08 07:40:13;;;;;;;21.73;19.83;;;16.00;99.90;;;;;;4953390;28;20519;-70
2022/05/08 07:42:38;;;;;;;23.17;21.23;;;15.90;99.90;;;;;;4953400;28;20270;-70
2022/05/08 07:45:05;;;;;;;23.00;21.00;;;15.70;99.90;;;;;;4953261;29;20169;-68
2022/05/08 07:47:31;;;;;;;24.40;21.90;;;15.40;99.90;;;;;;4953235;28;20184;-69
2022/05/08 07:49:56;;;;;;;27.00;24.60;;;15.20;99.90;;;;;;4952992;28;20829;-68
2022/05/08 07:52:22;;;;;;;32.13;27.80;;;15.50;99.90;;;;;;4953813;29;20623;-71
2022/05/08 07:54:47;;;;;;;426.53;235.90;;;15.80;99.90;;;;;;4953323;29;20205;-69
2022/05/08 07:57:13;;;;;;;39.37;34.13;;;16.10;99.90;;;;;;4953640;29;20195;-70
2022/05/08 07:59:39;;;;;;;38.90;35.27;;;16.40;99.90;;;;;;4953431;28;20659;-70
2022/05/08 08:02:04;;;;;;;25.60;23.20;;;16.60;99.90;;;;;;4953232;29;20220;-71
2022/05/08 08:04:31;;;;;;;125.60;111.90;;;16.80;99.90;;;;;;4953565;29;20417;-70
2022/05/08 08:06:57;;;;;;;140.30;123.63;;;16.90;99.90;;;;;;4953128;29;20169;-71
2022/05/08 08:09:23;;;;;;;23.47;21.27;;;17.00;99.90;;;;;;4950677;29;20444;-69
2022/05/08 08:11:49;;;;;;;24.87;22.60;;;17.10;99.90;;;;;;4954167;28;20404;-69
2022/05/08 08:14:15;;;;;;;21.93;19.73;;;16.60;99.90;;;;;;4952315;28;20326;-67
2022/05/08 08:16:41;;;;;;;20.77;18.87;;;16.30;99.90;;;;;;4953223;29;20176;-68
2022/05/08 08:19:07;;;;;;;20.97;19.07;;;16.20;99.90;;;;;;4953888;28;20440;-68
2022/05/08 08:21:33;;;;;;;21.60;19.63;;;16.50;99.90;;;;;;4954144;29;20410;-68
2022/05/08 08:23:59;;;;;;;21.37;19.60;;;16.40;99.90;;;;;;4953446;29;20554;-68
2022/05/08 08:26:25;;;;;;;27.03;24.73;;;16.40;99.90;;;;;;4952477;28;20410;-68
2022/05/08 08:28:50;;;;;;;20.30;18.50;;;16.90;99.90;;;;;;4952452;28;20529;-68
2022/05/08 08:31:16;;;;;;;22.07;20.27;;;17.10;99.90;;;;;;4952318;29;20410;-68
2022/05/08 08:33:45;;;;;;;19.77;18.07;;;17.20;99.90;;;;;;4952788;29;20186;-67
2022/05/08 08:36:11;;;;;;;21.67;19.40;;;17.10;99.90;;;;;;4952303;28;20212;-67
2022/05/08 08:38:38;;;;;;;17.70;16.30;;;17.30;99.90;;;;;;4952236;28;20437;-67
2022/05/08 08:41:05;;;;;;;20.10;18.07;;;17.50;99.90;;;;;;4952516;28;20431;-67
2022/05/08 08:49:09;;;;;;;18.97;17.17;;;18.00;99.90;;;;;;4953798;28;20471;-70
2022/05/08 08:51:36;;;;;;;15.70;14.30;;;18.30;99.90;;;;;;4952449;28;20393;-70
2022/05/08 08:54:03;;;;;;;16.30;14.90;;;18.20;99.90;;;;;;4952140;29;20414;-71
2022/05/08 08:56:29;;;;;;;16.10;14.80;;;18.40;99.90;;;;;;4952097;28;20462;-69
2022/05/08 08:58:54;;;;;;;14.33;13.13;;;18.70;99.90;;;;;;4952399;28;20434;-69
2022/05/08 09:01:20;;;;;;;14.43;13.23;;;19.30;99.90;;;;;;4952685;28;20420;-70
2022/05/08 09:03:46;;;;;;;14.13;12.90;;;19.50;99.90;;;;;;4951634;29;20245;-70
2022/05/08 09:06:11;;;;;;;14.47;13.20;;;19.90;99.90;;;;;;4952173;29;20213;-69
2022/05/08 09:08:37;;;;;;;16.27;14.77;;;19.70;99.90;;;;;;4951954;28;20201;-69
2022/05/08 09:11:03;;;;;;;16.30;14.93;;;19.70;99.90;;;;;;4951252;28;20578;-70
2022/05/08 09:13:30;;;;;;;15.70;14.40;;;19.50;99.90;;;;;;4941162;29;20269;-71
2022/05/08 09:16:07;;;;;;;14.27;13.10;;;19.20;99.90;;;;;;4932634;29;20962;-70
2022/05/08 09:18:48;;;;;;;14.60;13.40;;;18.90;99.90;;;;;;4932969;29;20449;-71
2022/05/08 09:24:12;;;;;;;15.83;14.53;;;19.00;99.90;;;;;;4933422;29;20403;-70
2022/05/08 09:26:38;;;;;;;17.30;15.03;;;18.90;99.90;;;;;;4932645;29;20413;-68
2022/05/08 09:29:05;;;;;;;16.70;14.30;;;18.70;99.90;;;;;;4931561;29;20465;-68
2022/05/08 09:31:41;;;;;;;15.33;14.03;;;19.00;99.90;;;;;;4932383;29;20206;-70
2022/05/08 09:34:07;;;;;;;14.10;12.90;;;19.50;99.90;;;;;;4933067;29;20391;-70
2022/05/08 09:36:33;;;;;;;13.53;12.33;;;19.60;99.90;;;;;;4932520;28;20407;-69
2022/05/08 09:39:00;;;;;;;16.20;14.23;;;19.80;99.90;;;;;;4933370;29;20438;-68
2022/05/08 09:41:38;;;;;;;13.70;12.33;;;19.90;99.90;;;;;;4935808;29;20918;-69
2022/05/08 09:44:14;;;;;;;13.70;12.60;;;20.30;99.90;;;;;;4935932;29;20410;-70
2022/05/08 09:46:43;;;;;;;13.80;12.60;;;20.10;99.90;;;;;;4935915;29;20424;-69
2022/05/08 09:49:12;;;;;;;12.13;11.20;;;19.60;99.90;;;;;;4935558;29;20449;-69
2022/05/08 09:51:40;;;;;;;14.63;13.33;;;19.60;99.90;;;;;;4934614;28;20421;-69
2022/05/08 09:54:07;;;;;;;11.73;10.73;;;19.70;99.90;;;;;;4935823;29;20407;-69
2022/05/08 09:56:35;;;;;;;13.07;11.90;;;19.90;99.90;;;;;;4935497;29;20421;-67
2022/05/08 09:59:01;;;;;;;13.50;12.40;;;20.10;99.90;;;;;;4935664;29;20418;-70
2022/05/08 10:01:27;;;;;;;13.33;12.27;;;20.30;99.90;;;;;;4935487;29;20774;-71
2022/05/08 10:03:55;;;;;;;13.40;12.20;;;20.50;99.90;;;;;;4937763;29;20544;-70
2022/05/08 10:06:21;;;;;;;12.23;11.00;;;20.60;99.90;;;;;;4935925;29;20414;-70
2022/05/08 10:08:48;;;;;;;12.13;11.13;;;20.80;99.90;;;;;;4935735;29;20943;-71
2022/05/08 10:14:03;;;;;;;12.33;11.30;;;20.30;99.90;;;;;;4935802;29;20419;-69
2022/05/08 10:16:49;;;;;;;13.57;12.30;;;20.20;99.90;;;;;;4935020;29;20473;-69
2022/05/08 10:19:23;;;;;;;12.37;11.27;;;20.40;99.90;;;;;;4935392;29;20518;-69
2022/05/08 10:22:05;;;;;;;11.57;10.57;;;19.70;99.90;;;;;;4935795;29;20866;-69
2022/05/08 10:24:30;;;;;;;13.10;11.90;;;20.20;99.90;;;;;;4935307;29;20564;-69
2022/05/08 10:27:16;;;;;;;11.80;10.80;;;20.60;99.90;;;;;;4934969;29;20443;-70
2022/05/08 10:29:42;;;;;;;11.67;10.67;;;21.20;99.90;;;;;;4935102;28;20190;-69
2022/05/08 10:32:13;;;;;;;11.77;10.87;;;21.10;99.90;;;;;;4952710;29;20422;-70
2022/05/08 10:34:39;;;;;;;13.43;12.23;;;21.20;99.90;;;;;;4954409;28;20437;-71
2022/05/08 10:37:13;;;;;;;12.70;11.37;;;21.20;99.90;;;;;;4954099;28;20914;-71
2022/05/08 10:39:42;;;;;;;13.57;12.33;;;20.90;99.90;;;;;;4954272;28;20448;-70
2022/05/08 10:42:40;;;;;;;11.30;10.40;;;21.00;99.90;;;;;;4954129;28;20418;-70
2022/05/08 10:45:06;;;;;;;11.10;10.20;;;21.30;99.90;;;;;;4954233;29;20397;-70
2022/05/08 10:47:40;;;;;;;8.00;7.30;;;21.70;99.90;;;;;;4952679;29;20437;-69
2022/05/08 10:50:07;;;;;;;7.00;6.40;;;22.00;99.90;;;;;;4952870;28;20445;-70
2022/05/08 10:52:33;;;;;;;6.70;6.10;;;21.40;98.50;;;;;;4954143;28;20414;-70
2022/05/08 10:55:02;;;;;;;7.33;6.47;;;21.60;97.60;;;;;;4952488;28;20587;-70
2022/05/08 10:57:33;;;;;;;6.87;6.17;;;22.00;97.10;;;;;;4953584;28;20409;-71
2022/05/08 11:00:00;;;;;;;8.63;6.30;;;22.30;96.90;;;;;;4953831;28;20418;-70
2022/05/08 11:02:43;;;;;;;7.30;6.57;;;22.80;96.00;;;;;;4952459;28;20495;-70
2022/05/08 11:05:11;;;;;;;6.43;5.93;;;22.90;94.90;;;;;;4953218;28;20792;-70
2022/05/08 11:07:48;;;;;;;6.90;6.40;;;22.80;95.20;;;;;;4953708;28;20417;-70
2022/05/08 11:10:21;;;;;;;7.90;6.00;;;23.00;95.10;;;;;;4953372;28;20418;-70
2022/05/08 11:13:10;;;;;;;6.70;6.10;;;22.90;95.20;;;;;;4953596;28;20394;-69
2022/05/08 11:15:42;;;;;;;7.00;6.40;;;22.60;94.80;;;;;;4952425;28;20514;-70
2022/05/08 11:18:09;;;;;;;7.07;6.43;;;22.80;94.80;;;;;;4953701;28;20781;-70
2022/05/08 11:20:59;;;;;;;8.13;5.97;;;23.60;94.40;;;;;;4953520;28;20426;-71
2022/05/08 11:23:28;;;;;;;6.63;6.03;;;24.30;91.80;;;;;;4953687;28;20382;-70
2022/05/08 11:25:56;;;;;;;6.83;6.23;;;23.90;92.40;;;;;;4953548;28;20786;-70
2022/05/08 11:28:24;;;;;;;6.93;5.40;;;23.20;93.10;;;;;;4954472;28;20417;-69
2022/05/08 11:30:50;;;;;;;7.50;5.77;;;23.70;93.20;;;;;;4954228;28;20467;-71
2022/05/08 11:36:04;;;;;;;6.50;5.90;;;23.60;92.60;;;;;;4954209;29;20492;-69
2022/05/08 11:38:48;;;;;;;6.30;5.70;;;24.30;91.20;;;;;;4953853;28;20402;-69
2022/05/08 11:41:27;;;;;;;6.50;5.90;;;23.80;91.10;;;;;;4954033;28;20410;-71
2022/05/08 11:43:57;;;;;;;6.70;6.00;;;23.90;90.80;;;;;;4954500;28;20395;-70
2022/05/08 11:46:37;;;;;;;5.87;5.30;;;24.30;90.70;;;;;;4954117;28;20405;-69
2022/05/08 11:49:18;;;;;;;6.70;6.10;;;24.40;90.60;;;;;;4953111;28;20477;-71
2022/05/08 11:51:45;;;;;;;7.20;6.50;;;23.90;90.60;;;;;;4952611;28;20889;-72
2022/05/08 11:54:19;;;;;;;6.70;6.10;;;23.80;90.60;;;;;;4953475;28;21383;-70
2022/05/08 11:56:45;;;;;;;7.00;6.40;;;23.20;91.40;;;;;;4956706;28;20413;-70
2022/05/08 11:59:21;;;;;;;6.10;5.60;;;22.40;91.90;;;;;;4953448;28;20434;-70
2022/05/08 12:01:52;;;;;;;7.47;6.30;;;22.00;92.80;;;;;;4952802;28;20162;-68
2022/05/08 12:04:24;;;;;;;7.30;6.70;;;22.30;93.20;;;;;;4952221;28;20760;-69
2022/05/08 12:07:10;;;;;;;9.93;6.57;;;23.10;92.50;;;;;;4947324;29;20410;-70
2022/05/08 12:09:37;;;;;;;6.40;5.90;;;23.80;91.10;;;;;;4952500;28;20425;-70
2022/05/08 12:12:31;;;;;;;6.47;5.97;;;24.30;91.40;;;;;;4953101;29;20398;-70
2022/05/08 12:15:00;;;;;;;6.57;6.00;;;24.50;90.50;;;;;;4953005;29;20475;-70
2022/05/08 12:17:27;;;;;;;5.97;5.47;;;26.40;88.70;;;;;;4952712;28;20413;-70
2022/05/08 12:19:57;;;;;;;7.43;6.83;;;26.90;85.50;;;;;;4952573;28;20441;-70
2022/05/08 12:22:30;;;;;;;6.40;5.83;;;26.50;83.80;;;;;;4952877;28;20389;-70
2022/05/08 12:25:00;;;;;;;6.43;5.83;;;26.30;84.70;;;;;;4952318;28;20412;-70
2022/05/08 12:27:26;;;;;;;6.17;5.57;;;25.80;86.70;;;;;;4953077;28;20418;-70
2022/05/08 12:29:53;;;;;;;6.33;5.73;;;25.10;86.60;;;;;;4952467;28;20433;-70
2022/05/08 12:32:20;;;;;;;5.47;4.97;;;24.30;88.60;;;;;;4952428;28;20969;-70
2022/05/08 12:34:46;;;;;;;7.30;6.67;;;23.80;90.00;;;;;;4952437;28;20488;-70
2022/05/08 12:37:13;;;;;;;6.27;5.80;;;24.20;89.70;;;;;;4951222;28;20426;-70
2022/05/08 12:39:39;;;;;;;7.83;6.13;;;23.60;90.30;;;;;;4952245;28;20458;-70
2022/05/08 12:42:05;;;;;;;4.87;4.47;;;23.20;90.80;;;;;;4967220;28;20488;-70
2022/05/08 12:44:31;;;;;;;6.07;5.67;;;23.30;90.50;;;;;;4951127;28;20231;-70
2022/05/08 12:46:57;;;;;;;6.20;5.70;;;22.90;90.90;;;;;;4952203;28;20410;-69
2022/05/08 12:49:23;;;;;;;6.27;5.77;;;22.90;91.50;;;;;;4952140;28;20528;-70
2022/05/08 12:51:49;;;;;;;5.93;5.53;;;23.40;91.50;;;;;;4952232;28;20220;-69
2022/05/08 12:54:15;;;;;;;4.80;4.40;;;23.50;90.30;;;;;;4951869;28;20902;-70
2022/05/08 12:56:41;;;;;;;6.13;5.07;;;23.00;90.70;;;;;;4952335;28;20174;-70
2022/05/08 13:01:51;;;;;;;5.00;4.60;;;22.80;88.60;;;;;;4951363;28;20281;-71
2022/05/08 13:04:17;;;;;;;4.60;4.27;;;23.30;87.30;;;;;;4952310;28;20489;-70
2022/05/08 13:06:43;;;;;;;5.37;4.57;;;23.60;85.90;;;;;;4952078;28;20410;-70
2022/05/08 13:09:09;;;;;;;5.30;4.80;;;24.10;85.40;;;;;;4951777;28;20561;-70